sensor_id;sensor_type;location;lat;lon;timestamp;P1;durP1;ratioP1;P2;durP2;ratioP2
4053;SDS011;2042;47.956;9.222;2022-11-20T00:00:52;505.10;;;479.30;;
4053;SDS011;2042;47.956;9.222;2022-11-20T00:03:17;469.07;;;445.23;;
4053;SDS011;2042;47.956;9.222;2022-11-20T00:05:43;452.30;;;428.50;;
4053;SDS011;2042;47.956;9.222;2022-11-20T00:08:09;425.37;;;403.20;;
4053;SDS011;2042;47.956;9.222;2022-11-20T00:10:36;404.73;;;383.23;;
4053;SDS011;2042;47.956;9.222;2022-11-20T00:13:02;393.17;;;371.77;;
4053;SDS011;2042;47.956;9.222;2022-11-20T00:15:28;407.17;;;385.67;;
4053;SDS011;2042;47.956;9.222;2022-11-20T00:17:54;412.00;;;390.20;;
4053;SDS011;2042;47.956;9.222;2022-11-20T00:20:19;358.37;;;338.50;;
4053;SDS011;2042;47.956;9.222;2022-11-20T00:22:45;377.33;;;356.63;;
4053;SDS011;2042;47.956;9.222;2022-11-20T00:25:11;411.37;;;389.87;;
4053;SDS011;2042;47.956;9.222;2022-11-20T00:27:37;456.40;;;432.90;;
4053;SDS011;2042;47.956;9.222;2022-11-20T00:30:03;514.10;;;488.30;;
4053;SDS011;2042;47.956;9.222;2022-11-20T00:32:29;391.67;;;369.77;;
4053;SDS011;2042;47.956;9.222;2022-11-20T00:34:55;183.30;;;168.40;;
4053;SDS011;2042;47.956;9.222;2022-11-20T00:37:21;150.90;;;136.90;;
4053;SDS011;2042;47.956;9.222;2022-11-20T00:39:46;121.80;;;105.70;;
4053;SDS011;2042;47.956;9.222;2022-11-20T00:42:12;227.60;;;210.63;;
4053;SDS011;2042;47.956;9.222;2022-11-20T00:44:38;116.17;;;76.43;;
4053;SDS011;2042;47.956;9.222;2022-11-20T00:47:04;114.67;;;70.60;;
4053;SDS011;2042;47.956;9.222;2022-11-20T00:49:30;121.60;;;88.77;;
4053;SDS011;2042;47.956;9.222;2022-11-20T00:51:55;124.97;;;99.80;;
4053;SDS011;2042;47.956;9.222;2022-11-20T00:54:21;247.77;;;229.63;;
4053;SDS011;2042;47.956;9.222;2022-11-20T00:56:46;216.97;;;199.43;;
4053;SDS011;2042;47.956;9.222;2022-11-20T00:59:12;166.27;;;151.20;;
4053;SDS011;2042;47.956;9.222;2022-11-20T01:01:38;159.20;;;143.90;;
4053;SDS011;2042;47.956;9.222;2022-11-20T01:04:03;139.50;;;124.10;;
4053;SDS011;2042;47.956;9.222;2022-11-20T01:06:33;133.17;;;118.53;;
4053;SDS011;2042;47.956;9.222;2022-11-20T01:09:01;120.63;;;92.70;;
4053;SDS011;2042;47.956;9.222;2022-11-20T01:11:32;129.37;;;105.93;;
4053;SDS011;2042;47.956;9.222;2022-11-20T01:14:02;144.50;;;129.27;;
4053;SDS011;2042;47.956;9.222;2022-11-20T01:16:30;217.43;;;200.13;;
4053;SDS011;2042;47.956;9.222;2022-11-20T01:18:58;809.77;;;464.90;;
4053;SDS011;2042;47.956;9.222;2022-11-20T01:23:53;198.70;;;182.30;;
4053;SDS011;2042;47.956;9.222;2022-11-20T01:26:20;169.23;;;153.67;;
4053;SDS011;2042;47.956;9.222;2022-11-20T01:28:48;132.63;;;117.40;;
4053;SDS011;2042;47.956;9.222;2022-11-20T01:31:19;182.23;;;166.23;;
4053;SDS011;2042;47.956;9.222;2022-11-20T01:33:50;1999.90;;;999.90;;
4053;SDS011;2042;47.956;9.222;2022-11-20T01:36:18;1427.67;;;754.57;;
4053;SDS011;2042;47.956;9.222;2022-11-20T01:38:45;779.23;;;435.53;;
4053;SDS011;2042;47.956;9.222;2022-11-20T01:41:11;1999.90;;;999.90;;
4053;SDS011;2042;47.956;9.222;2022-11-20T01:44:01;1999.90;;;999.90;;
4053;SDS011;2042;47.956;9.222;2022-11-20T01:46:28;1999.90;;;999.90;;
4053;SDS011;2042;47.956;9.222;2022-11-20T01:51:40;1999.90;;;999.90;;
4053;SDS011;2042;47.956;9.222;2022-11-20T01:54:24;1999.90;;;999.90;;
4053;SDS011;2042;47.956;9.222;2022-11-20T01:56:54;1999.90;;;999.90;;
4053;SDS011;2042;47.956;9.222;2022-11-20T01:59:24;1999.90;;;999.90;;
4053;SDS011;2042;47.956;9.222;2022-11-20T02:01:52;1999.90;;;999.90;;
4053;SDS011;2042;47.956;9.222;2022-11-20T02:04:18;1999.90;;;999.90;;
4053;SDS011;2042;47.956;9.222;2022-11-20T02:06:46;1999.90;;;999.90;;
4053;SDS011;2042;47.956;9.222;2022-11-20T02:09:20;1999.90;;;999.90;;
4053;SDS011;2042;47.956;9.222;2022-11-20T02:11:46;1999.90;;;999.90;;
4053;SDS011;2042;47.956;9.222;2022-11-20T02:14:11;1999.90;;;999.90;;
4053;SDS011;2042;47.956;9.222;2022-11-20T02:16:48;1999.90;;;999.90;;
4053;SDS011;2042;47.956;9.222;2022-11-20T02:19:25;1999.90;;;999.90;;
4053;SDS011;2042;47.956;9.222;2022-11-20T02:21:59;1999.90;;;999.90;;
4053;SDS011;2042;47.956;9.222;2022-11-20T02:24:26;1999.90;;;999.90;;
4053;SDS011;2042;47.956;9.222;2022-11-20T02:26:57;1999.90;;;999.90;;
4053;SDS011;2042;47.956;9.222;2022-11-20T02:32:28;1999.90;;;999.90;;
4053;SDS011;2042;47.956;9.222;2022-11-20T02:34:56;1999.90;;;999.90;;
4053;SDS011;2042;47.956;9.222;2022-11-20T02:37:22;1999.90;;;999.90;;
4053;SDS011;2042;47.956;9.222;2022-11-20T02:39:52;1999.90;;;999.90;;
4053;SDS011;2042;47.956;9.222;2022-11-20T02:42:18;1999.90;;;999.90;;
4053;SDS011;2042;47.956;9.222;2022-11-20T02:44:43;1999.90;;;999.90;;
4053;SDS011;2042;47.956;9.222;2022-11-20T02:47:09;1999.90;;;999.90;;
4053;SDS011;2042;47.956;9.222;2022-11-20T02:49:35;1999.90;;;999.90;;
4053;SDS011;2042;47.956;9.222;2022-11-20T02:52:00;1999.90;;;999.90;;
4053;SDS011;2042;47.956;9.222;2022-11-20T02:54:26;1999.90;;;999.90;;
4053;SDS011;2042;47.956;9.222;2022-11-20T02:56:52;1999.90;;;999.90;;
4053;SDS011;2042;47.956;9.222;2022-11-20T02:59:18;1999.90;;;999.90;;
4053;SDS011;2042;47.956;9.222;2022-11-20T03:01:44;1999.90;;;999.90;;
4053;SDS011;2042;47.956;9.222;2022-11-20T03:04:09;1999.90;;;999.90;;
4053;SDS011;2042;47.956;9.222;2022-11-20T03:06:35;1999.90;;;999.90;;
4053;SDS011;2042;47.956;9.222;2022-11-20T03:09:01;1999.90;;;999.90;;
4053;SDS011;2042;47.956;9.222;2022-11-20T03:11:27;1999.90;;;999.90;;
4053;SDS011;2042;47.956;9.222;2022-11-20T03:13:53;1999.90;;;999.90;;
4053;SDS011;2042;47.956;9.222;2022-11-20T03:16:19;1999.90;;;999.90;;
4053;SDS011;2042;47.956;9.222;2022-11-20T03:18:46;1999.90;;;999.90;;
4053;SDS011;2042;47.956;9.222;2022-11-20T03:21:13;1999.90;;;999.90;;
4053;SDS011;2042;47.956;9.222;2022-11-20T03:23:40;1999.90;;;999.90;;
4053;SDS011;2042;47.956;9.222;2022-11-20T03:28:41;1999.90;;;999.90;;
4053;SDS011;2042;47.956;9.222;2022-11-20T03:31:11;1999.90;;;999.90;;
4053;SDS011;2042;47.956;9.222;2022-11-20T03:33:38;1999.90;;;999.90;;
4053;SDS011;2042;47.956;9.222;2022-11-20T03:36:06;1999.90;;;999.90;;
4053;SDS011;2042;47.956;9.222;2022-11-20T03:38:37;1999.90;;;999.90;;
4053;SDS011;2042;47.956;9.222;2022-11-20T03:41:07;1999.90;;;999.90;;
4053;SDS011;2042;47.956;9.222;2022-11-20T03:43:35;1999.90;;;999.90;;
4053;SDS011;2042;47.956;9.222;2022-11-20T03:46:01;1999.90;;;999.90;;
4053;SDS011;2042;47.956;9.222;2022-11-20T03:48:27;1999.90;;;999.90;;
4053;SDS011;2042;47.956;9.222;2022-11-20T03:50:53;1999.90;;;999.90;;
4053;SDS011;2042;47.956;9.222;2022-11-20T03:53:34;1999.90;;;999.90;;
4053;SDS011;2042;47.956;9.222;2022-11-20T03:55:59;1999.90;;;999.90;;
4053;SDS011;2042;47.956;9.222;2022-11-20T03:58:25;1999.90;;;999.90;;
4053;SDS011;2042;47.956;9.222;2022-11-20T04:00:51;1999.90;;;999.90;;
4053;SDS011;2042;47.956;9.222;2022-11-20T04:03:16;1999.90;;;999.90;;
4053;SDS011;2042;47.956;9.222;2022-11-20T04:05:42;1999.90;;;999.90;;
4053;SDS011;2042;47.956;9.222;2022-11-20T04:08:08;1999.90;;;999.90;;
4053;SDS011;2042;47.956;9.222;2022-11-20T04:10:34;1999.90;;;999.90;;
4053;SDS011;2042;47.956;9.222;2022-11-20T04:13:00;1999.90;;;999.90;;
4053;SDS011;2042;47.956;9.222;2022-11-20T04:15:25;1999.90;;;999.90;;
4053;SDS011;2042;47.956;9.222;2022-11-20T04:17:51;1999.90;;;999.90;;
4053;SDS011;2042;47.956;9.222;2022-11-20T04:20:16;1999.90;;;999.90;;
4053;SDS011;2042;47.956;9.222;2022-11-20T04:22:42;1999.90;;;999.90;;
4053;SDS011;2042;47.956;9.222;2022-11-20T04:25:08;1999.90;;;999.90;;
4053;SDS011;2042;47.956;9.222;2022-11-20T04:27:33;1999.90;;;999.90;;
4053;SDS011;2042;47.956;9.222;2022-11-20T04:29:59;1999.90;;;999.90;;
4053;SDS011;2042;47.956;9.222;2022-11-20T04:32:25;1999.90;;;999.90;;
4053;SDS011;2042;47.956;9.222;2022-11-20T04:34:50;1999.90;;;999.90;;
4053;SDS011;2042;47.956;9.222;2022-11-20T04:37:16;1999.90;;;999.90;;
4053;SDS011;2042;47.956;9.222;2022-11-20T04:39:43;1999.90;;;999.90;;
4053;SDS011;2042;47.956;9.222;2022-11-20T04:42:09;1999.90;;;999.90;;
4053;SDS011;2042;47.956;9.222;2022-11-20T04:44:54;1999.90;;;999.90;;
4053;SDS011;2042;47.956;9.222;2022-11-20T04:47:20;1999.90;;;999.90;;
4053;SDS011;2042;47.956;9.222;2022-11-20T04:49:46;1999.90;;;999.90;;
4053;SDS011;2042;47.956;9.222;2022-11-20T04:52:12;1999.90;;;999.90;;
4053;SDS011;2042;47.956;9.222;2022-11-20T04:54:38;1999.90;;;999.90;;
4053;SDS011;2042;47.956;9.222;2022-11-20T04:57:03;1999.90;;;999.90;;
4053;SDS011;2042;47.956;9.222;2022-11-20T04:59:29;1999.90;;;999.90;;
4053;SDS011;2042;47.956;9.222;2022-11-20T05:01:55;1999.90;;;999.90;;
4053;SDS011;2042;47.956;9.222;2022-11-20T05:04:20;1999.90;;;999.90;;
4053;SDS011;2042;47.956;9.222;2022-11-20T05:06:46;1999.90;;;999.90;;
4053;SDS011;2042;47.956;9.222;2022-11-20T05:09:12;1999.90;;;999.90;;
4053;SDS011;2042;47.956;9.222;2022-11-20T05:11:38;1999.90;;;999.90;;
4053;SDS011;2042;47.956;9.222;2022-11-20T05:14:03;1999.90;;;999.90;;
4053;SDS011;2042;47.956;9.222;2022-11-20T05:16:29;1999.90;;;999.90;;
4053;SDS011;2042;47.956;9.222;2022-11-20T05:18:55;1999.90;;;999.90;;
4053;SDS011;2042;47.956;9.222;2022-11-20T05:21:22;1999.90;;;999.90;;
4053;SDS011;2042;47.956;9.222;2022-11-20T05:23:47;1999.90;;;999.90;;
4053;SDS011;2042;47.956;9.222;2022-11-20T05:26:17;1999.90;;;999.90;;
4053;SDS011;2042;47.956;9.222;2022-11-20T05:28:46;1999.90;;;999.90;;
4053;SDS011;2042;47.956;9.222;2022-11-20T05:31:13;1999.90;;;999.90;;
4053;SDS011;2042;47.956;9.222;2022-11-20T05:33:42;1999.90;;;999.90;;
4053;SDS011;2042;47.956;9.222;2022-11-20T05:36:08;1999.90;;;999.90;;
4053;SDS011;2042;47.956;9.222;2022-11-20T05:38:35;1999.90;;;999.90;;
4053;SDS011;2042;47.956;9.222;2022-11-20T05:41:07;1999.90;;;999.90;;
4053;SDS011;2042;47.956;9.222;2022-11-20T05:43:38;1999.90;;;999.90;;
4053;SDS011;2042;47.956;9.222;2022-11-20T05:46:05;1999.90;;;999.90;;
4053;SDS011;2042;47.956;9.222;2022-11-20T05:48:33;1999.90;;;999.90;;
4053;SDS011;2042;47.956;9.222;2022-11-20T05:51:00;1999.90;;;999.90;;
4053;SDS011;2042;47.956;9.222;2022-11-20T05:53:27;1999.90;;;999.90;;
4053;SDS011;2042;47.956;9.222;2022-11-20T05:55:59;1999.90;;;999.90;;
4053;SDS011;2042;47.956;9.222;2022-11-20T05:58:26;1999.90;;;999.90;;
4053;SDS011;2042;47.956;9.222;2022-11-20T06:00:52;1999.90;;;999.90;;
4053;SDS011;2042;47.956;9.222;2022-11-20T06:03:18;1999.90;;;999.90;;
4053;SDS011;2042;47.956;9.222;2022-11-20T06:05:44;1999.90;;;999.90;;
4053;SDS011;2042;47.956;9.222;2022-11-20T06:08:10;1999.90;;;999.90;;
4053;SDS011;2042;47.956;9.222;2022-11-20T06:10:35;1999.90;;;999.90;;
4053;SDS011;2042;47.956;9.222;2022-11-20T06:13:01;1999.90;;;999.90;;
4053;SDS011;2042;47.956;9.222;2022-11-20T06:15:27;1999.90;;;999.90;;
4053;SDS011;2042;47.956;9.222;2022-11-20T06:17:53;1999.90;;;999.90;;
4053;SDS011;2042;47.956;9.222;2022-11-20T06:20:20;1999.90;;;999.90;;
4053;SDS011;2042;47.956;9.222;2022-11-20T06:22:46;1999.90;;;999.90;;
4053;SDS011;2042;47.956;9.222;2022-11-20T06:25:12;1999.90;;;999.90;;
4053;SDS011;2042;47.956;9.222;2022-11-20T06:27:38;1999.90;;;999.90;;
4053;SDS011;2042;47.956;9.222;2022-11-20T06:30:04;1999.90;;;999.90;;
4053;SDS011;2042;47.956;9.222;2022-11-20T06:32:30;1999.90;;;999.90;;
4053;SDS011;2042;47.956;9.222;2022-11-20T06:34:56;1999.90;;;999.90;;
4053;SDS011;2042;47.956;9.222;2022-11-20T06:37:21;1999.90;;;999.90;;
4053;SDS011;2042;47.956;9.222;2022-11-20T06:39:47;1999.90;;;999.90;;
4053;SDS011;2042;47.956;9.222;2022-11-20T06:42:13;1999.90;;;999.90;;
4053;SDS011;2042;47.956;9.222;2022-11-20T06:44:39;1999.90;;;999.90;;
4053;SDS011;2042;47.956;9.222;2022-11-20T06:47:05;1999.90;;;999.90;;
4053;SDS011;2042;47.956;9.222;2022-11-20T06:49:30;1999.90;;;999.90;;
4053;SDS011;2042;47.956;9.222;2022-11-20T06:51:56;1999.90;;;999.90;;
4053;SDS011;2042;47.956;9.222;2022-11-20T06:54:22;1999.90;;;999.90;;
4053;SDS011;2042;47.956;9.222;2022-11-20T06:56:47;1999.90;;;999.90;;
4053;SDS011;2042;47.956;9.222;2022-11-20T06:59:13;1999.90;;;999.90;;
4053;SDS011;2042;47.956;9.222;2022-11-20T07:01:39;1999.90;;;999.90;;
4053;SDS011;2042;47.956;9.222;2022-11-20T07:04:05;1999.90;;;999.90;;
4053;SDS011;2042;47.956;9.222;2022-11-20T07:06:30;1999.90;;;999.90;;
4053;SDS011;2042;47.956;9.222;2022-11-20T07:08:56;1999.90;;;999.90;;
4053;SDS011;2042;47.956;9.222;2022-11-20T07:11:22;1999.90;;;999.90;;
4053;SDS011;2042;47.956;9.222;2022-11-20T07:13:48;1999.90;;;999.90;;
4053;SDS011;2042;47.956;9.222;2022-11-20T07:16:14;1999.90;;;999.90;;
4053;SDS011;2042;47.956;9.222;2022-11-20T07:18:40;1999.90;;;999.90;;
4053;SDS011;2042;47.956;9.222;2022-11-20T07:21:07;1999.90;;;999.90;;
4053;SDS011;2042;47.956;9.222;2022-11-20T07:23:34;1999.90;;;999.90;;
4053;SDS011;2042;47.956;9.222;2022-11-20T07:26:07;1999.90;;;999.90;;
4053;SDS011;2042;47.956;9.222;2022-11-20T07:28:34;1999.90;;;999.90;;
4053;SDS011;2042;47.956;9.222;2022-11-20T07:31:01;1999.90;;;999.90;;
4053;SDS011;2042;47.956;9.222;2022-11-20T07:33:27;1999.90;;;999.90;;
4053;SDS011;2042;47.956;9.222;2022-11-20T07:35:53;1999.90;;;999.90;;
4053;SDS011;2042;47.956;9.222;2022-11-20T07:38:19;1999.90;;;999.90;;
4053;SDS011;2042;47.956;9.222;2022-11-20T07:40:44;1999.90;;;999.90;;
4053;SDS011;2042;47.956;9.222;2022-11-20T07:43:10;1999.90;;;999.90;;
4053;SDS011;2042;47.956;9.222;2022-11-20T07:45:35;1999.90;;;999.90;;
4053;SDS011;2042;47.956;9.222;2022-11-20T07:48:01;1999.90;;;999.90;;
4053;SDS011;2042;47.956;9.222;2022-11-20T07:50:27;1999.90;;;999.90;;
4053;SDS011;2042;47.956;9.222;2022-11-20T07:52:59;1999.90;;;999.90;;
4053;SDS011;2042;47.956;9.222;2022-11-20T07:55:26;1999.90;;;999.90;;
4053;SDS011;2042;47.956;9.222;2022-11-20T07:57:54;1999.90;;;999.90;;
4053;SDS011;2042;47.956;9.222;2022-11-20T08:00:21;1999.90;;;999.90;;
4053;SDS011;2042;47.956;9.222;2022-11-20T08:02:47;1999.90;;;999.90;;
4053;SDS011;2042;47.956;9.222;2022-11-20T08:05:14;1999.90;;;999.90;;
4053;SDS011;2042;47.956;9.222;2022-11-20T08:07:40;1999.90;;;999.90;;
4053;SDS011;2042;47.956;9.222;2022-11-20T08:10:09;1999.90;;;999.90;;
4053;SDS011;2042;47.956;9.222;2022-11-20T08:12:43;1999.90;;;999.90;;
4053;SDS011;2042;47.956;9.222;2022-11-20T08:15:30;1999.90;;;999.90;;
4053;SDS011;2042;47.956;9.222;2022-11-20T08:18:00;1999.90;;;999.90;;
4053;SDS011;2042;47.956;9.222;2022-11-20T08:20:26;1999.90;;;999.90;;
4053;SDS011;2042;47.956;9.222;2022-11-20T08:22:56;1999.90;;;999.90;;
4053;SDS011;2042;47.956;9.222;2022-11-20T08:25:23;1999.90;;;999.90;;
4053;SDS011;2042;47.956;9.222;2022-11-20T08:27:49;1999.90;;;999.90;;
4053;SDS011;2042;47.956;9.222;2022-11-20T08:30:14;1999.90;;;999.90;;
4053;SDS011;2042;47.956;9.222;2022-11-20T08:32:40;1999.90;;;999.90;;
4053;SDS011;2042;47.956;9.222;2022-11-20T08:35:06;1999.90;;;999.90;;
4053;SDS011;2042;47.956;9.222;2022-11-20T08:37:32;1999.90;;;999.90;;
4053;SDS011;2042;47.956;9.222;2022-11-20T08:39:58;1999.90;;;999.90;;
4053;SDS011;2042;47.956;9.222;2022-11-20T08:42:26;1999.90;;;999.90;;
4053;SDS011;2042;47.956;9.222;2022-11-20T08:44:52;1999.90;;;999.90;;
4053;SDS011;2042;47.956;9.222;2022-11-20T08:47:17;1999.90;;;999.90;;
4053;SDS011;2042;47.956;9.222;2022-11-20T08:49:43;1999.90;;;999.90;;
4053;SDS011;2042;47.956;9.222;2022-11-20T08:52:09;1999.90;;;999.90;;
4053;SDS011;2042;47.956;9.222;2022-11-20T08:54:34;1999.90;;;999.90;;
4053;SDS011;2042;47.956;9.222;2022-11-20T08:57:00;1999.90;;;999.90;;
4053;SDS011;2042;47.956;9.222;2022-11-20T08:59:28;1999.90;;;999.90;;
4053;SDS011;2042;47.956;9.222;2022-11-20T09:01:55;1999.90;;;999.90;;
4053;SDS011;2042;47.956;9.222;2022-11-20T09:04:21;1999.90;;;999.90;;
4053;SDS011;2042;47.956;9.222;2022-11-20T09:06:47;1999.90;;;999.90;;
4053;SDS011;2042;47.956;9.222;2022-11-20T09:09:15;1999.90;;;999.90;;
4053;SDS011;2042;47.956;9.222;2022-11-20T09:11:42;1999.90;;;999.90;;
4053;SDS011;2042;47.956;9.222;2022-11-20T09:14:08;1999.90;;;999.90;;
4053;SDS011;2042;47.956;9.222;2022-11-20T09:16:33;1999.90;;;999.90;;
4053;SDS011;2042;47.956;9.222;2022-11-20T09:18:59;1999.90;;;999.90;;
4053;SDS011;2042;47.956;9.222;2022-11-20T09:21:25;1999.90;;;999.90;;
4053;SDS011;2042;47.956;9.222;2022-11-20T09:23:50;1999.90;;;999.90;;
4053;SDS011;2042;47.956;9.222;2022-11-20T09:26:16;1999.90;;;999.90;;
4053;SDS011;2042;47.956;9.222;2022-11-20T09:28:41;1999.90;;;999.90;;
4053;SDS011;2042;47.956;9.222;2022-11-20T09:31:08;1999.90;;;999.90;;
4053;SDS011;2042;47.956;9.222;2022-11-20T09:33:38;1999.90;;;999.90;;
4053;SDS011;2042;47.956;9.222;2022-11-20T09:36:04;1999.90;;;999.90;;
4053;SDS011;2042;47.956;9.222;2022-11-20T09:38:30;1999.90;;;999.90;;
4053;SDS011;2042;47.956;9.222;2022-11-20T09:40:57;1999.90;;;999.90;;
4053;SDS011;2042;47.956;9.222;2022-11-20T09:51:46;1999.90;;;999.90;;
4053;SDS011;2042;47.956;9.222;2022-11-20T09:54:30;1999.90;;;999.90;;
4053;SDS011;2042;47.956;9.222;2022-11-20T09:57:00;1999.90;;;999.90;;
4053;SDS011;2042;47.956;9.222;2022-11-20T09:59:54;1999.90;;;999.90;;
4053;SDS011;2042;47.956;9.222;2022-11-20T10:04:58;1999.90;;;999.90;;
4053;SDS011;2042;47.956;9.222;2022-11-20T10:07:38;1999.90;;;999.90;;
4053;SDS011;2042;47.956;9.222;2022-11-20T10:13:30;1999.90;;;999.90;;
4053;SDS011;2042;47.956;9.222;2022-11-20T10:16:22;1999.90;;;999.90;;
4053;SDS011;2042;47.956;9.222;2022-11-20T10:24:23;1999.90;;;999.90;;
4053;SDS011;2042;47.956;9.222;2022-11-20T10:26:56;1999.90;;;999.90;;
4053;SDS011;2042;47.956;9.222;2022-11-20T10:29:29;1999.90;;;999.90;;
4053;SDS011;2042;47.956;9.222;2022-11-20T10:32:02;1999.90;;;999.90;;
4053;SDS011;2042;47.956;9.222;2022-11-20T10:34:44;1999.90;;;999.90;;
4053;SDS011;2042;47.956;9.222;2022-11-20T10:37:19;1999.90;;;999.90;;
4053;SDS011;2042;47.956;9.222;2022-11-20T10:42:45;1999.90;;;999.90;;
4053;SDS011;2042;47.956;9.222;2022-11-20T10:47:55;1999.90;;;999.90;;
4053;SDS011;2042;47.956;9.222;2022-11-20T10:50:35;1999.90;;;999.90;;
4053;SDS011;2042;47.956;9.222;2022-11-20T10:53:11;1999.90;;;999.90;;
4053;SDS011;2042;47.956;9.222;2022-11-20T10:55:45;1999.90;;;999.90;;
4053;SDS011;2042;47.956;9.222;2022-11-20T11:01:11;1999.90;;;999.90;;
4053;SDS011;2042;47.956;9.222;2022-11-20T11:03:40;1999.90;;;999.90;;
4053;SDS011;2042;47.956;9.222;2022-11-20T11:06:10;1999.90;;;999.90;;
4053;SDS011;2042;47.956;9.222;2022-11-20T11:08:42;1999.90;;;999.90;;
4053;SDS011;2042;47.956;9.222;2022-11-20T11:11:21;1999.90;;;999.90;;
4053;SDS011;2042;47.956;9.222;2022-11-20T11:13:50;1999.90;;;999.90;;
4053;SDS011;2042;47.956;9.222;2022-11-20T11:16:22;1999.90;;;999.90;;
4053;SDS011;2042;47.956;9.222;2022-11-20T11:18:50;1999.90;;;999.90;;
4053;SDS011;2042;47.956;9.222;2022-11-20T11:21:22;1999.90;;;999.90;;
4053;SDS011;2042;47.956;9.222;2022-11-20T11:23:56;1999.90;;;999.90;;
4053;SDS011;2042;47.956;9.222;2022-11-20T11:26:26;1999.90;;;999.90;;
4053;SDS011;2042;47.956;9.222;2022-11-20T11:29:00;1999.90;;;999.90;;
4053;SDS011;2042;47.956;9.222;2022-11-20T11:31:32;1999.90;;;999.90;;
4053;SDS011;2042;47.956;9.222;2022-11-20T11:34:15;1999.90;;;999.90;;
4053;SDS011;2042;47.956;9.222;2022-11-20T11:36:47;1999.90;;;999.90;;
4053;SDS011;2042;47.956;9.222;2022-11-20T11:39:21;1999.90;;;999.90;;
4053;SDS011;2042;47.956;9.222;2022-11-20T11:41:47;1999.90;;;999.90;;
4053;SDS011;2042;47.956;9.222;2022-11-20T11:47:02;1999.90;;;999.90;;
4053;SDS011;2042;47.956;9.222;2022-11-20T11:49:30;1999.90;;;999.90;;
4053;SDS011;2042;47.956;9.222;2022-11-20T11:54:43;1999.90;;;999.90;;
4053;SDS011;2042;47.956;9.222;2022-11-20T12:00:10;1999.90;;;999.90;;
4053;SDS011;2042;47.956;9.222;2022-11-20T12:05:17;1999.90;;;999.90;;
4053;SDS011;2042;47.956;9.222;2022-11-20T12:16:04;1999.90;;;999.90;;
4053;SDS011;2042;47.956;9.222;2022-11-20T12:18:36;1999.90;;;999.90;;
4053;SDS011;2042;47.956;9.222;2022-11-20T12:26:54;1999.90;;;999.90;;
4053;SDS011;2042;47.956;9.222;2022-11-20T12:43:11;1999.90;;;999.90;;
4053;SDS011;2042;47.956;9.222;2022-11-20T12:53:50;1999.90;;;999.90;;
4053;SDS011;2042;47.956;9.222;2022-11-20T12:56:43;1999.90;;;999.90;;
4053;SDS011;2042;47.956;9.222;2022-11-20T12:59:23;1999.90;;;999.90;;
4053;SDS011;2042;47.956;9.222;2022-11-20T13:02:10;1999.90;;;999.90;;
4053;SDS011;2042;47.956;9.222;2022-11-20T13:07:47;1999.90;;;999.90;;
4053;SDS011;2042;47.956;9.222;2022-11-20T13:10:18;1999.90;;;999.90;;
4053;SDS011;2042;47.956;9.222;2022-11-20T13:12:57;1999.90;;;999.90;;
4053;SDS011;2042;47.956;9.222;2022-11-20T13:15:35;1999.90;;;999.90;;
4053;SDS011;2042;47.956;9.222;2022-11-20T13:18:10;1999.90;;;999.90;;
4053;SDS011;2042;47.956;9.222;2022-11-20T13:20:46;1999.90;;;999.90;;
4053;SDS011;2042;47.956;9.222;2022-11-20T13:23:22;1999.90;;;999.90;;
4053;SDS011;2042;47.956;9.222;2022-11-20T13:28:41;1999.90;;;999.90;;
4053;SDS011;2042;47.956;9.222;2022-11-20T13:34:00;1999.90;;;999.90;;
4053;SDS011;2042;47.956;9.222;2022-11-20T13:36:29;1999.90;;;999.90;;
4053;SDS011;2042;47.956;9.222;2022-11-20T13:38:57;1999.90;;;999.90;;
4053;SDS011;2042;47.956;9.222;2022-11-20T13:41:26;1999.90;;;999.90;;
4053;SDS011;2042;47.956;9.222;2022-11-20T13:46:48;1999.90;;;999.90;;
4053;SDS011;2042;47.956;9.222;2022-11-20T13:51:50;1999.90;;;999.90;;
4053;SDS011;2042;47.956;9.222;2022-11-20T14:02:18;1999.90;;;999.90;;
4053;SDS011;2042;47.956;9.222;2022-11-20T14:04:46;1999.90;;;999.90;;
4053;SDS011;2042;47.956;9.222;2022-11-20T14:07:24;1999.90;;;999.90;;
4053;SDS011;2042;47.956;9.222;2022-11-20T14:09:56;1999.90;;;999.90;;
4053;SDS011;2042;47.956;9.222;2022-11-20T14:12:27;1999.90;;;999.90;;
4053;SDS011;2042;47.956;9.222;2022-11-20T14:14:54;1999.90;;;999.90;;
4053;SDS011;2042;47.956;9.222;2022-11-20T14:17:22;1999.90;;;999.90;;
4053;SDS011;2042;47.956;9.222;2022-11-20T14:19:53;1999.90;;;999.90;;
4053;SDS011;2042;47.956;9.222;2022-11-20T14:22:23;1999.90;;;999.90;;
4053;SDS011;2042;47.956;9.222;2022-11-20T14:25:02;1999.90;;;999.90;;
4053;SDS011;2042;47.956;9.222;2022-11-20T14:27:33;1999.90;;;999.90;;
4053;SDS011;2042;47.956;9.222;2022-11-20T14:30:01;1999.90;;;999.90;;
4053;SDS011;2042;47.956;9.222;2022-11-20T14:32:28;1999.90;;;999.90;;
4053;SDS011;2042;47.956;9.222;2022-11-20T14:34:55;1999.90;;;999.90;;
4053;SDS011;2042;47.956;9.222;2022-11-20T14:37:27;1999.90;;;999.90;;
4053;SDS011;2042;47.956;9.222;2022-11-20T14:39:58;1999.90;;;999.90;;
4053;SDS011;2042;47.956;9.222;2022-11-20T14:42:26;1999.90;;;999.90;;
4053;SDS011;2042;47.956;9.222;2022-11-20T14:44:57;1999.90;;;999.90;;
4053;SDS011;2042;47.956;9.222;2022-11-20T14:47:25;1999.90;;;999.90;;
4053;SDS011;2042;47.956;9.222;2022-11-20T14:49:56;1999.90;;;999.90;;
4053;SDS011;2042;47.956;9.222;2022-11-20T14:52:25;1999.90;;;999.90;;
4053;SDS011;2042;47.956;9.222;2022-11-20T14:54:53;1999.90;;;999.90;;
4053;SDS011;2042;47.956;9.222;2022-11-20T14:57:30;1999.90;;;999.90;;
4053;SDS011;2042;47.956;9.222;2022-11-20T15:02:38;1999.90;;;999.90;;
4053;SDS011;2042;47.956;9.222;2022-11-20T15:05:07;1999.90;;;999.90;;
4053;SDS011;2042;47.956;9.222;2022-11-20T15:07:35;1999.90;;;999.90;;
4053;SDS011;2042;47.956;9.222;2022-11-20T15:12:31;1999.90;;;999.90;;
4053;SDS011;2042;47.956;9.222;2022-11-20T15:14:58;1999.90;;;999.90;;
4053;SDS011;2042;47.956;9.222;2022-11-20T15:17:25;1999.90;;;999.90;;
4053;SDS011;2042;47.956;9.222;2022-11-20T15:19:51;1999.90;;;999.90;;
4053;SDS011;2042;47.956;9.222;2022-11-20T15:22:19;1999.90;;;999.90;;
4053;SDS011;2042;47.956;9.222;2022-11-20T15:24:45;1999.90;;;999.90;;
4053;SDS011;2042;47.956;9.222;2022-11-20T15:27:10;1999.90;;;999.90;;
4053;SDS011;2042;47.956;9.222;2022-11-20T15:29:37;1999.90;;;999.90;;
4053;SDS011;2042;47.956;9.222;2022-11-20T15:32:02;1999.90;;;999.90;;
4053;SDS011;2042;47.956;9.222;2022-11-20T15:34:28;1999.90;;;999.90;;
4053;SDS011;2042;47.956;9.222;2022-11-20T15:36:54;1999.90;;;999.90;;
4053;SDS011;2042;47.956;9.222;2022-11-20T15:39:19;1999.90;;;999.90;;
4053;SDS011;2042;47.956;9.222;2022-11-20T15:41:45;1999.90;;;999.90;;
4053;SDS011;2042;47.956;9.222;2022-11-20T15:44:11;1999.90;;;999.90;;
4053;SDS011;2042;47.956;9.222;2022-11-20T15:46:38;1999.90;;;999.90;;
4053;SDS011;2042;47.956;9.222;2022-11-20T15:49:10;1999.90;;;999.90;;
4053;SDS011;2042;47.956;9.222;2022-11-20T15:51:39;1999.90;;;999.90;;
4053;SDS011;2042;47.956;9.222;2022-11-20T15:54:21;1999.90;;;999.90;;
4053;SDS011;2042;47.956;9.222;2022-11-20T15:56:47;1999.90;;;999.90;;
4053;SDS011;2042;47.956;9.222;2022-11-20T15:59:14;1999.90;;;999.90;;
4053;SDS011;2042;47.956;9.222;2022-11-20T16:01:40;1999.90;;;999.90;;
4053;SDS011;2042;47.956;9.222;2022-11-20T16:04:13;1999.90;;;999.90;;
4053;SDS011;2042;47.956;9.222;2022-11-20T16:06:40;1999.90;;;999.90;;
4053;SDS011;2042;47.956;9.222;2022-11-20T16:09:06;1999.90;;;999.90;;
4053;SDS011;2042;47.956;9.222;2022-11-20T16:11:32;1999.90;;;999.90;;